Terminal Aerodrome Forecast
Issued by NWS Paducah, KY

Home | Current Version | Previous Version | Text Only | Print | Product List | Glossary On
Versions: 1 2 3 4 5 6 7 8 9 10 11 12 13 14 15
000
FTUS43 KPAH 250635 AAA
TAFEVV
TAF AMD
KEVV 250635Z 2507/2606 18010G18KT P6SM -SHRA BKN035
      TEMPO 2507/2510 2SM +TSRA BR BKN015CB
     FM251000 20013KT P6SM SCT035 BKN100
     FM251900 19013KT P6SM SCT050 BKN150
     FM260000 17008KT P6SM SCT040 BKN070=

USA.gov is the U.S. government's official web portal to all federal, state and local government web resources and services.